^^

METAR Αεροδρομίων

σε ακτίνα 500 χλμ


 Τι είναι το METAR ??? 

Πρώτο είναι το πλησιέστερο αεροδρόμιο (Θεσ/νίκη LGTS 6χλμ) και
τέλος το πιο απομακρυσμένο (Κων/πολη LTBA 494χλμ).
Επίσης μερικές αναφορές, παρουσιάζουν λιγότερα στοιχεία γιατί
οι αρχικές είναι ελλιπείς ή έχουν λάθος μορφοποίηση.
Πηγαίνετε στις Αναφορές METAR από Μετεωρολογικούς Σταθμούς )  
Αλφαβητική Λίστα Γρήγορης Μετάβασης στα 48 Αεροδρόμια
Αλβανία: Τίρανα  Βουλγαρία: Γκόρνα Οριαχόβιτσα  Μπουργκάς  Σόφια  Φιλιππούπολη  Ελλάδα: Αθήνα  Αλεξανδρούπολη  Ανδραβίδα  Βόλος  Ελευσίνα  Ζάκυνθος  Θεσσαλονίκη  Ιωάννινα  Καβάλα  Καλαμάτα  Κέρκυρα  Κεφαλονιά  Κοζάνη  Κύθηρα
Λέσβος  Λήμνος  Μύκονος  Νάξος  Πάρος  Πάτρα  Πρέβεζα  Σάμος  Σκιάθος  Σκύρος  Σύρος  Χίος  Ιταλία: Γκαλατίνα  Μπρίντιζι  Σάντα Μαρία ντι Λέουκα  Ταράντο  Κόσοβο: Πρίστινα  Κροατία: Ντουμπρόβνικ  Μαυροβούνιο: Ποντγκόριτσα  Τιβάτ
Δ.Β.Μ: Οχρίδα  Σκόπια  Ρουμανία: Κραϊόβα  Σερβία: Κράλιεβο  Νις  Ούζιτσε  Τουρκία: Κωνσταντινούπολη  Σμύρνη Τσορλού 
(ΒΠΑ)Βάση Πολεμικής Αεροπορίας
LGTS - Αεροδρόμιο "Μακεδονία"
Θεσσαλονίκη - Κεντρική Μακεδονία - Ελλάδα
Γ.Πλάτ: 40.5167 - Γ.Μήκ: 22.9667 - Υψόμ: 7μ
Απόσταση από το Vouhead Weather: (Ν) 6χλμ
Ενημερώθηκε: 29/05/2022 09:20
Διάσπαρτα νέφη
Διάσπαρτα νέφη
 Άνεμος από Δ
Άνεμος: Δ 11 km/h
Θερμοκρασία: 24°C
Σημ. Δρόσου: 19°C
Υγρασία: 74%
Βαρόμετρο: 1006 hPa
Σύννεφα: Διάσπαρτα νέφη
Ορατότητα: 10 km
Ανάλυση νέφωσης: Διάσπαρτα νέφη 762 m
2022/05/29 06:20 LGTS 290620Z 28006KT 9999 FEW025 24/19 Q1006 NOSIG
LGKZ - Αεροδρόμιο "Φίλιππος"
Κοζάνη - Δυτική Μακεδονία - Ελλάδα
Γ.Πλάτ: 40.2833 - Γ.Μήκ: 21.8333 - Υψόμ: 628μ
Απόσταση από το Vouhead Weather: (ΔΝΔ) 102χλμ
Ενημερώθηκε: 29/05/2022 08:50
Αίθριος
Αίθριος
 Άνεμος από calm
Άνεμος: Απνοια
Θερμοκρασία: 22°C
Σημ. Δρόσου: 12°C
Υγρασία: 53%
Βαρόμετρο: 1008 hPa
Περίληψη: Αίθριος
Ορατότητα: Μεγαλύτερη από 10 km
2022/05/29 05:50 LGKZ 290550Z 00000KT CAVOK 22/12 Q1008
 
LGKV - Αεροδρόμιο "Μέγας Αλέξανδρος"
Καβάλα(Χρυσούπολη) - Α. Μακεδονία & Θράκη - Ελλάδα
Γ.Πλάτ: 40.9167 - Γ.Μήκ: 24.6167 - Υψόμ: 5μ
Απόσταση από το Vouhead Weather: (ΑΒΑ) 144χλμ
Ενημερώθηκε: 29/05/2022 09:20
Διάσπαρτα νέφη
Διάσπαρτα νέφη
 Άνεμος από ΑΝΑ
Άνεμος: ΑΝΑ 13 km/h
Θερμοκρασία: 23°C
Σημ. Δρόσου: 16°C
Υγρασία: 65%
Βαρόμετρο: 1007 hPa
Σύννεφα: Διάσπαρτα νέφη
Ορατότητα: 10 km
Ανάλυση νέφωσης: Διάσπαρτα νέφη 1067 m
2022/05/29 06:20 LGKV 290620Z 11007KT 9999 FEW035 23/16 Q1007
LGBL - Αεροδρόμιο στη Νέα Αγχίαλο
Βόλος(Αλμυρός) - Θεσσαλία - Ελλάδα
Γ.Πλάτ: 39.2167 - Γ.Μήκ: 22.8000 - Υψόμ: 26μ
Απόσταση από το Vouhead Weather: (Ν) 151χλμ
Ενημερώθηκε: 29/05/2022 09:20
Διάσπαρτα νέφη
Διάσπαρτα νέφη
 Άνεμος από Α
Άνεμος: Α 9 km/h
Θερμοκρασία: 26°C
Σημ. Δρόσου: 17°C
Υγρασία: 58%
Βαρόμετρο: 1005 hPa
Σύννεφα: Διάσπαρτα νέφη
Ορατότητα: 10 km
Ανάλυση νέφωσης: Διάσπαρτα νέφη 1219 m
2022/05/29 06:20 LGBL 290620Z 09005KT 9999 FEW040 26/17 Q1005
 
LGSK - Αεροδρόμ. "Αλέξανδρος Παπαδιαμάντης"
Σκιάθος - Θεσσαλία(Σποράδες) - Ελλάδα
Γ.Πλάτ: 39.1833 - Γ.Μήκ: 23.5000 - Υψόμ: 15μ
Απόσταση από το Vouhead Weather: (ΝΝΑ) 160χλμ
Ενημερώθηκε: 29/05/2022 08:50
Αίθριος
Αίθριος
 Άνεμος από ΒΒΔ
Άνεμος: ΒΒΔ 11 km/h
Θερμοκρασία: 23°C
Σημ. Δρόσου: 10°C
Υγρασία: 44%
Βαρόμετρο: 1005 hPa
Περίληψη: Αίθριος
Ορατότητα: Μεγαλύτερη από 10 km
2022/05/29 05:50 LGSK 290550Z 34006KT CAVOK 23/10 Q1005
LWSK - Αεροδρόμιο "Σκόπγιε Ιντερνάσιοναλ Έιρπορτ"
Σκόπια(Πέτροβακ) - Περιφέρεια Σκοπίων - Δ.Β.Μ
Γ.Πλάτ: 41.9667 - Γ.Μήκ: 21.6333 - Υψόμ: 239μ
Απόσταση από το Vouhead Weather: (ΒΔ) 192χλμ
Ενημερώθηκε: 29/05/2022 09:00
Διάσπαρτα νέφη
Διάσπαρτα νέφη
 Άνεμος από ΒΒΑ
Άνεμος: ΒΒΑ 15 km/h
Θερμοκρασία: 18°C
Σημ. Δρόσου: 14°C
Υγρασία: 78%
Βαρόμετρο: 1009 hPa
Σύννεφα: Διάσπαρτα νέφη
Ορατότητα: 10 km
Ανάλυση νέφωσης: Διάσπαρτα νέφη 305 m
2022/05/29 06:00 LWSK 290600Z 03008KT 9999 FEW010 18/14 Q1009 NOSIG
 
LWOH - Αεροδρόμιο "Σεντ Πολ Δε Απόστλ"
Οχρίδα - Νοτιοδυτική Περιφέρεια - Δ.Β.Μ
Γ.Πλάτ: 41.9667 - Γ.Μήκ: 21.6333 - Υψόμ: 239μ
Απόσταση από το Vouhead Weather: (ΔΒΔ) 193χλμ
Ενημερώθηκε: 29/05/2022 09:30
Μερικώς νεφελώδης
Μερικώς νεφελώδης
 Άνεμος από ΒΒΔ
Άνεμος: ΒΒΔ 9 km/h
Θερμοκρασία: 20°C
Σημ. Δρόσου: 14°C
Υγρασία: 69%
Βαρόμετρο: 1007 hPa
Σύννεφα: Μερικώς νεφελώδης
Ορατότητα: 10 km
Ανάλυση νέφωσης: Μερικώς νεφελώδης 1219 m
2022/05/29 06:30 LWOH 290630Z 33005KT 9999 SCT040TCU 20/14 Q1007
LGLM - Αεροδρόμιο "Ήφαιστος"
Λήμνος - Βόρειο Αιγαίο - Ελλάδα
Γ.Πλάτ: 39.9167 - Γ.Μήκ: 25.2333 - Υψόμ: 5μ
Απόσταση από το Vouhead Weather: (ΑΝΑ) 205χλμ
Ενημερώθηκε: 29/05/2022 09:20
Αίθριος
Αίθριος
 Άνεμος από ΒΑ
Άνεμος: ΒΑ 7 km/h
Θερμοκρασία: 25°C
Σημ. Δρόσου: 17°C
Υγρασία: 61%
Βαρόμετρο: 1007 hPa
Περίληψη: Αίθριος
Ορατότητα: Μεγαλύτερη από 10 km
2022/05/29 06:20 LGLM 290620Z 05004KT CAVOK 25/17 Q1007
 
LGIO - Αεροδρόμιο "Βασιλεύς Πύρρος"
Ιωάννινα - Ήπειρος - Ελλάδα
Γ.Πλάτ: 39.7000 - Γ.Μήκ: 20.8167 - Υψόμ: 476μ
Απόσταση από το Vouhead Weather: (ΔΝΔ) 207χλμ
Ενημερώθηκε: 29/05/2022 09:20
Μερικώς νεφελώδης
Μερικώς νεφελώδης
 Άνεμος από ΑΝΑ
Άνεμος: ΑΝΑ 11 km/h
Θερμοκρασία: 22°C
Σημ. Δρόσου: 11°C
Υγρασία: 50%
Βαρόμετρο: 1007 hPa
Σύννεφα: Μερικώς νεφελώδης
Ορατότητα: 10 km
Ανάλυση νέφωσης: Μερικώς νεφελώδης 1219 m
2022/05/29 06:20 LGIO 290620Z 11006KT 9999 SCT040 22/11 Q1007
LGSY - Αεροδρόμιο στη Σκύρο
Σκύρος - Θεσσαλία(Σποράδες) - Ελλάδα
Γ.Πλάτ: 38.9667 - Γ.Μήκ: 24.4833 - Υψόμ: 15μ
Απόσταση από το Vouhead Weather: (ΝΑ) 220χλμ
Ενημερώθηκε: 29/05/2022 08:50
Αίθριος
Αίθριος
 Άνεμος από calm
Άνεμος: Απνοια
Θερμοκρασία: 27°C
Δείκτης Δυσφορίας: 27°C
Σημ. Δρόσου: 13°C
Υγρασία: 42%
Βαρόμετρο: 1006 hPa
Περίληψη: Αίθριος
Ορατότητα: Μεγαλύτερη από 10 km
2022/05/29 05:50 LGSY 290550Z 00000KT CAVOK 27/13 Q1006 RMK FEW080 BKN200 BLU
 
LBPD - Αεροδρόμιο στη Φιλιππούπολη
Φιλιππούπολη(Κρούμοβο) - Πλόβντιβ - Βουλγαρία
Γ.Πλάτ: 42.1333 - Γ.Μήκ: 24.8000 - Υψόμ: 185μ
Απόσταση από το Vouhead Weather: (ΒΑ) 231χλμ
Ενημερώθηκε: 29/05/2022 09:30
Κυρίως νεφελώδης
Κυρίως νεφελώδης
 Άνεμος από ΝΑ
Άνεμος: ΝΑ 11 km/h
Θερμοκρασία: 21°C
Σημ. Δρόσου: 18°C
Υγρασία: 83%
Βαρόμετρο: 1010 hPa
Σύννεφα: Κυρίως νεφελώδης
Ορατότητα: 10 km
Ανάλυση νέφωσης: Κυρίως νεφελώδης 3962 m
2022/05/29 06:30 LBPD 290630Z AUTO 14006KT 9999 BKN130/// 21/18 Q1010 NOSIG
LBSF - Αεροδρόμιο στη Σόφια
Σόφια(Βράτσντεμπνα) - Μητρ. περ. Σόφιας - Βουλγαρία
Γ.Πλάτ: 42.6500 - Γ.Μήκ: 23.3833 - Υψόμ: 595μ
Απόσταση από το Vouhead Weather: (Β) 234χλμ
Ενημερώθηκε: 29/05/2022 09:30
Αίθριος
Αίθριος
 Άνεμος από ΑΝΑ
Άνεμος: ΑΝΑ 20 km/h
Θερμοκρασία: 19°C
Σημ. Δρόσου: 14°C
Υγρασία: 73%
Βαρόμετρο: 1010 hPa
Περίληψη: Αίθριος
Ορατότητα: Μεγαλύτερη από 10 km
2022/05/29 06:30 LBSF 290630Z 11011KT CAVOK 19/14 Q1010 NOSIG
 
LGAL - Αεροδρόμιο "Δημόκριτος"
Αλεξανδρούπολη - Α. Μακεδονία & Θράκη - Ελλάδα
Γ.Πλάτ: 40.8500 - Γ.Μήκ: 25.9167 - Υψόμ: 3μ
Απόσταση από το Vouhead Weather: (Α) 250χλμ
Ενημερώθηκε: 29/05/2022 09:20
Διάσπαρτα νέφη
Διάσπαρτα νέφη
 Άνεμος από ΒΑ
Άνεμος: ΒΑ 17 km/h
Θερμοκρασία: 25°C
Σημ. Δρόσου: 14°C
Υγρασία: 51%
Βαρόμετρο: 1008 hPa
Σύννεφα: Διάσπαρτα νέφη
Ορατότητα: 10 km
Ανάλυση νέφωσης: Διάσπαρτα νέφη 762 m
2022/05/29 06:20 LGAL 290620Z 05009KT 9999 FEW025 25/14 Q1008
BKPR - Αεροδρόμιο "Αντεμ Γιασάρι"
Πρίστινα - Πρίστινα - Κόσοβο
(Ελληνικό Υπουργείο Εξωτερικών, σχετικά με το Κόσοβο)
Γ.Πλάτ: 42.5833 - Γ.Μήκ: 21.0333 - Υψόμ: 576μ
Απόσταση από το Vouhead Weather: (ΒΔ) 276χλμ
Ενημερώθηκε: 29/05/2022 09:30
Κυρίως νεφελώδης
Κυρίως νεφελώδης
 Άνεμος από ΒΒΑ
Άνεμος: ΒΒΑ 28 km/h
Θερμοκρασία: 13°C
Σημ. Δρόσου: 10°C
Υγρασία: 82%
Βαρόμετρο: 1010 hPa
Σύννεφα: Κυρίως νεφελώδης
Ορατότητα: 10 km
Ανάλυση νέφωσης: Μερικώς νεφελώδης 1219 m
Κυρίως νεφελώδης 2438 m
2022/05/29 06:30 BKPR 290630Z 02015KT 9999 SCT040 BKN080 13/10 Q1010 NOSIG
 
LGKR - Αεροδρόμιο "Ιωάννης Καποδίστριας"
Κέρκυρα - Ιόνιοι Νήσοι - Ελλάδα
Γ.Πλάτ: 39.6000 - Γ.Μήκ: 19.9167 - Υψόμ: 2μ
Απόσταση από το Vouhead Weather: (ΔΝΔ) 281χλμ
Ενημερώθηκε: 29/05/2022 09:20
Κυρίως νεφελώδης
Κυρίως νεφελώδης
 Άνεμος από ΝΑ
Άνεμος: ΝΑ 19 km/h
Θερμοκρασία: 23°C
Σημ. Δρόσου: 18°C
Υγρασία: 74%
Βαρόμετρο: 1005 hPa
Σύννεφα: Κυρίως νεφελώδης
Ορατότητα: 8 km
Ανάλυση νέφωσης: Διάσπαρτα νέφη 488 m
Μερικώς νεφελώδης 762 m
Κυρίως νεφελώδης 2438 m
2022/05/29 06:20 LGKR 290620Z 13010KT 8000 FEW016TCU SCT025 BKN080 23/18 Q1005 NOSIG
LATI - Αεροδρόμιο "Μάδερ Τερέζα"
Τίρανα(Ρίνα) - Τίρανα - Αλβανία
Γ.Πλάτ: 41.3167 - Γ.Μήκ: 19.7667 - Υψόμ: 90μ
Απόσταση από το Vouhead Weather: (ΔΒΔ) 282χλμ
Ενημερώθηκε: 29/05/2022 09:20
Διάσπαρτα νέφη
Διάσπαρτα νέφη
 Άνεμος από ΒΔ
Άνεμος: ΒΔ 13 km/h
Θερμοκρασία: 23°C
Σημ. Δρόσου: 17°C
Υγρασία: 69%
Βαρόμετρο: 1005 hPa
Σύννεφα: Διάσπαρτα νέφη
Ορατότητα: 10 km
Ανάλυση νέφωσης: Διάσπαρτα νέφη 1219 m
2022/05/29 06:20 LATI 290620Z 32007KT 290V010 9999 FEW040CB 23/17 Q1005 NOSIG
 
LGEL - Αεροδρόμιο στην Ελευσίνα(ΒΠΑ)
Ελευσίνα - Αττική - Ελλάδα
Γ.Πλάτ: 38.0667 - Γ.Μήκ: 23.5500 - Υψόμ: 31μ
Απόσταση από το Vouhead Weather: (Ν) 282χλμ
Ενημερώθηκε: 29/05/2022 09:20
Αίθριος
Αίθριος
 Άνεμος από Μεταβλητός
Άνεμος: Μεταβλητός 4 km/h
Θερμοκρασία: 28°C
Δείκτης Δυσφορίας: 27°C
Σημ. Δρόσου: 13°C
Υγρασία: 40%
Βαρόμετρο: 1005 hPa
Περίληψη: Αίθριος
Ορατότητα: Μεγαλύτερη από 10 km
2022/05/29 06:20 LGEL 290620Z VRB02KT CAVOK 28/13 Q1005
LGPZ - Αεροδρόμιο στη Πρέβεζα
Πρέβεζα(Ακτιον) - Ήπειρος - Ελλάδα
Γ.Πλάτ: 38.6167 - Γ.Μήκ: 20.7667 - Υψόμ: 4μ
Απόσταση από το Vouhead Weather: (ΝΔ) 288χλμ
Ενημερώθηκε: 29/05/2022 09:20
Διάσπαρτα νέφη
Διάσπαρτα νέφη
 Άνεμος από calm
Άνεμος: Απνοια
Θερμοκρασία: 24°C
Σημ. Δρόσου: 19°C
Υγρασία: 74%
Βαρόμετρο: 1006 hPa
Σύννεφα: Διάσπαρτα νέφη
Ορατότητα: 10 km
Ανάλυση νέφωσης: Διάσπαρτα νέφη 488 m
2022/05/29 06:20 LGPZ 290620Z 00000KT 9999 FEW016 24/19 Q1006
 
LGRX - Αεροδρόμιο στη Πάτρα(ΒΠΑ)
Πάτρα(Αραξος) - Δυτική Ελλάδα - Ελλάδα
Γ.Πλάτ: 38.1667 - Γ.Μήκ: 21.4167 - Υψόμ: 15μ
Απόσταση από το Vouhead Weather: (ΝΝΔ) 299χλμ
Ενημερώθηκε: 29/05/2022 09:20
Διάσπαρτα νέφη
Διάσπαρτα νέφη
 Άνεμος από ΝΝΔ
Άνεμος: ΝΝΔ 9 km/h
Θερμοκρασία: 24°C
Σημ. Δρόσου: 18°C
Υγρασία: 69%
Βαρόμετρο: 1007 hPa
Σύννεφα: Διάσπαρτα νέφη
Ορατότητα: 10 km
Ανάλυση νέφωσης: Διάσπαρτα νέφη 762 m
2022/05/29 06:20 LGRX 290620Z 20005KT 9999 FEW025 24/18 Q1007
LGAV - Αεροδρόμιο "Ελευθέριος Βεμιζέλος"
Αθήνα(Σπάτα) - Αττική - Ελλάδα
Γ.Πλάτ: 37.9333 - Γ.Μήκ: 23.9500 - Υψόμ: 94μ
Απόσταση από το Vouhead Weather: (ΝΝΑ) 305χλμ
Ενημερώθηκε: 29/05/2022 09:20
Αίθριος
Αίθριος
 Άνεμος από Α
Άνεμος: Α 11 km/h
Θερμοκρασία: 25°C
Σημ. Δρόσου: 17°C
Υγρασία: 61%
Βαρόμετρο: 1007 hPa
Περίληψη: Αίθριος
Ορατότητα: Μεγαλύτερη από 10 km
2022/05/29 06:20 LGAV 290620Z 08006KT 030V110 CAVOK 25/17 Q1007 NOSIG
 
LYNI - Αεροδρόμιο "Κονσταντίν Δε Γκρέιτ"
Νις - Νότια και Ανατολική Σερβία - Σερβία
Γ.Πλάτ: 43.3167 - Γ.Μήκ: 21.8833 - Υψόμ: 202μ
Απόσταση από το Vouhead Weather: (ΒΒΔ) 319χλμ
Ενημερώθηκε: 29/05/2022 09:30
Καταιγίδα, Κυρίως νεφελώδης
Καταιγίδα, Κυρίως νεφελώδης
 Άνεμος από ΒΔ
Άνεμος: ΒΔ 20 km/h
Θερμοκρασία: 13°C
Σημ. Δρόσου: 9°C
Υγρασία: 77%
Βαρόμετρο: 1011 hPa
Περίληψη: Καταιγίδα
Σύννεφα: Κυρίως νεφελώδης
Ορατότητα: 10 km
Ανάλυση νέφωσης: Διάσπαρτα νέφη 457 m
Διάσπαρτα νέφη 762 m
Κυρίως νεφελώδης 823 m
2022/05/29 06:30 LYNI 290630Z 32011KT 9999 TS FEW015 FEW025CB BKN027 13/09 Q1011 TEMPO 5000 TSRA
LGAD - Αεροδρόμιο στην Ανδραβίδα(ΒΠΑ)
Ανδραβίδα - Δυτική Ελλάδα - Ελλάδα
Γ.Πλάτ: 37.9167 - Γ.Μήκ: 21.2667 - Υψόμ: 12μ
Απόσταση από το Vouhead Weather: (ΝΝΔ) 329χλμ
Ενημερώθηκε: 29/05/2022 09:20
Μερικώς νεφελώδης
Μερικώς νεφελώδης
 Άνεμος από ΝΝΔ
Άνεμος: ΝΝΔ 7 km/h
Θερμοκρασία: 23°C
Σημ. Δρόσου: 17°C
Υγρασία: 69%
Βαρόμετρο: 1007 hPa
Σύννεφα: Μερικώς νεφελώδης
Ορατότητα: 10 km
Ανάλυση νέφωσης: Μερικώς νεφελώδης 610 m
2022/05/29 06:20 LGAD 290620Z 20004KT 9999 SCT020 23/17 Q1007
 
LGKF - Αεροδρόμιο στην Κεφαλονιά
Κεφαλονιά - Ιόνιοι Νήσοι - Ελλάδα
Γ.Πλάτ: 38.1167 - Γ.Μήκ: 20.5000 - Υψόμ: 18μ
Απόσταση από το Vouhead Weather: (ΝΔ) 346χλμ
Ενημερώθηκε: 29/05/2022 08:50
Μερικώς νεφελώδης
Μερικώς νεφελώδης
 Άνεμος από ΝΝΑ
Άνεμος: ΝΝΑ 7 km/h
Θερμοκρασία: 21°C
Σημ. Δρόσου: 20°C
Υγρασία: 94%
Βαρόμετρο: 1006 hPa
Σύννεφα: Μερικώς νεφελώδης
Ορατότητα: 9 km
Ανάλυση νέφωσης: Μερικώς νεφελώδης 366 m
Διάσπαρτα νέφη 488 m
Μερικώς νεφελώδης 549 m
2022/05/29 05:50 LGKF 290550Z 15004KT 9000 SCT012 FEW016TCU SCT018 21/20 Q1006
LGMT - Αεροδρόμιο "Οδυσσέας Ελύτης"
Λέσβος - Βόρειο Αιγαίο - Ελλάδα
Γ.Πλάτ: 39.0500 - Γ.Μήκ: 26.6000 - Υψόμ: 17μ
Απόσταση από το Vouhead Weather: (ΑΝΑ) 353χλμ
Ενημερώθηκε: 29/05/2022 09:20
Διάσπαρτα νέφη
Διάσπαρτα νέφη
 Άνεμος από Μεταβλητός
Άνεμος: Μεταβλητός 4 km/h
Θερμοκρασία: 26°C
Σημ. Δρόσου: 19°C
Υγρασία: 65%
Βαρόμετρο: 1008 hPa
Σύννεφα: Διάσπαρτα νέφη
Ορατότητα: 10 km
Ανάλυση νέφωσης: Διάσπαρτα νέφη 762 m
2022/05/29 06:20 LGMT 290620Z VRB02KT 9999 FEW025 26/19 Q1008
 
LGZA - Αεροδρόμιο "Διονύσιος Σολωμός"
Ζάκυνθος - Ιόνιοι Νήσοι - Ελλάδα
Γ.Πλάτ: 37.7500 - Γ.Μήκ: 20.8667 - Υψόμ: 3μ
Απόσταση από το Vouhead Weather: (ΝΝΔ) 362χλμ
Ενημερώθηκε: 29/05/2022 08:50
Μερικώς νεφελώδης
Μερικώς νεφελώδης
 Άνεμος από Ν
Άνεμος: Ν 9 km/h
Θερμοκρασία: 22°C
Σημ. Δρόσου: 17°C
Υγρασία: 73%
Βαρόμετρο: 1007 hPa
Σύννεφα: Μερικώς νεφελώδης
Ορατότητα: 10 km
Ανάλυση νέφωσης: Μερικώς νεφελώδης 549 m
2022/05/29 05:50 LGZA 290550Z 17005KT 9999 SCT018 22/17 Q1007
LBGO - Αεροδρόμιο στη Γκόρνα Οριαχόβιτσα
Γκόρνα Οριαχόβιτσα - Βέλικο Τάρνοβο - Βουλγαρία
Γ.Πλάτ: 43.1500 - Γ.Μήκ: 25.7167 - Υψόμ: 86μ
Απόσταση από το Vouhead Weather: (ΒΑ) 366χλμ
Ενημερώθηκε: 29/05/2022 09:30
Κυρίως νεφελώδης
Κυρίως νεφελώδης
 Άνεμος από Α
Άνεμος: Α 7 km/h
Θερμοκρασία: 19°C
Σημ. Δρόσου: 19°C
Υγρασία: 100%
Βαρόμετρο: 1009 hPa
Σύννεφα: Κυρίως νεφελώδης
Ορατότητα: 10 km
Ανάλυση νέφωσης: Κυρίως νεφελώδης 3962 m
2022/05/29 06:30 LBGO 290630Z AUTO 10004KT 050V130 9999 BKN130/// 19/19 Q1009 NOSIG
 
LGHI - Αεροδρόμιο "Όμηρος"
Χίος - Ιόνιοι Νήσοι - Ελλάδα
Γ.Πλάτ: 38.3167 - Γ.Μήκ: 26.1167 - Υψόμ: 4μ
Απόσταση από το Vouhead Weather: (ΝΑ) 368χλμ
Ενημερώθηκε: 29/05/2022 08:50
Αίθριος
Αίθριος
 Άνεμος από ΝΝΔ
Άνεμος: ΝΝΔ 6 km/h
Θερμοκρασία: 22°C
Σημ. Δρόσου: 14°C
Υγρασία: 61%
Βαρόμετρο: 1007 hPa
Περίληψη: Αίθριος
Ορατότητα: Μεγαλύτερη από 10 km
2022/05/29 05:50 LGHI 290550Z 21003KT CAVOK 22/14 Q1007
LYPG - Αεροδρόμιο στη Ποντγκόριτσα
Ποντγκόριτσα - Γκολούμποβτσι - Μαυροβούνιο
Γ.Πλάτ: 42.3667 - Γ.Μήκ: 19.2500 - Υψόμ: 43μ
Απόσταση από το Vouhead Weather: (ΒΔ) 369χλμ
Ενημερώθηκε: 29/05/2022 09:30
Μερικώς νεφελώδης
Μερικώς νεφελώδης
 Άνεμος από ΑΒΑ
Άνεμος: ΑΒΑ 6 km/h
Θερμοκρασία: 24°C
Σημ. Δρόσου: 13°C
Υγρασία: 50%
Βαρόμετρο: 1005 hPa
Σύννεφα: Μερικώς νεφελώδης
Ορατότητα: 10 km
Ανάλυση νέφωσης: Διάσπαρτα νέφη 914 m
Μερικώς νεφελώδης 1219 m
2022/05/29 06:30 LYPG 290630Z 07003KT 350V110 9999 FEW030TCU SCT040 24/13 Q1005 TEMPO TSRA FEW027CB SCT040
 
LGSO - Αεροδρόμιο "Δημήτριος Βικέλας"
Σύρος - Νότιο Αιγαίο - Ελλάδα
Γ.Πλάτ: 37.4167 - Γ.Μήκ: 24.9500 - Υψόμ: 72μ
Απόσταση από το Vouhead Weather: (ΝΝΑ) 390χλμ
Ενημερώθηκε: 29/05/2022 08:50
Αίθριος
Αίθριος
 Άνεμος από Ν
Άνεμος: Ν 19 km/h
Θερμοκρασία: 26°C
Σημ. Δρόσου: 15°C
Υγρασία: 51%
Βαρόμετρο: 1007 hPa
Περίληψη: Αίθριος
Ορατότητα: Μεγαλύτερη από 10 km
2022/05/29 05:50 LGSO 290550Z 18010KT CAVOK 26/15 Q1007
LGKL - Αεροδρόμιο στη Καλαμάτα(ΒΠΑ)
Καλαμάτα - Πελοπόννησος - Ελλάδα
Γ.Πλάτ: 37.0667 - Γ.Μήκ: 22.0167 - Υψόμ: 8μ
Απόσταση από το Vouhead Weather: (ΝΝΔ) 398χλμ
Ενημερώθηκε: 29/05/2022 09:20
Αίθριος
Αίθριος
 Άνεμος από calm
Άνεμος: Απνοια
Θερμοκρασία: 24°C
Σημ. Δρόσου: 17°C
Υγρασία: 65%
Βαρόμετρο: 1007 hPa
Περίληψη: Αίθριος
Ορατότητα: Μεγαλύτερη από 10 km
2022/05/29 06:20 LGKL 290620Z 00000KT CAVOK 24/17 Q1007
 
LIBY - Αεροδρόμιο στη Σάντα Μαρία ντι Λέουκα
Σάντα Μαρία ντι Λέουκα - Απουλία(Λέτσε) - Ιταλία
Γ.Πλάτ: 39.8167 - Γ.Μήκ: 18.3500 - Υψόμ: 112μ
Απόσταση από το Vouhead Weather: (Δ) 402χλμ
Ενημερώθηκε: 29/05/2022 08:55
Μερικώς νεφελώδης
Μερικώς νεφελώδης
 Άνεμος από ΝΝΑ
Άνεμος: ΝΝΑ 15 km/h
Θερμοκρασία: 20°C
Σημ. Δρόσου: 17°C
Υγρασία: 83%
Βαρόμετρο: 1003 hPa
Σύννεφα: Μερικώς νεφελώδης
Ορατότητα: 10 km
Ανάλυση νέφωσης: Μερικώς νεφελώδης 366 m
2022/05/29 05:55 LIBY 290555Z 16008KT 9999 SCT012TCU 20/17 Q1003 RMK BKN BKN060 QUK 2 QUL 1 S VIS MAR 10 KM VIS MIN 9999
LGMK - Αεροδρόμιο στη Μύκονο
Μύκονος - Νότιο Αιγαίο - Ελλάδα
Γ.Πλάτ: 37.4333 - Γ.Μήκ: 25.3500 - Υψόμ: 123μ
Απόσταση από το Vouhead Weather: (ΝΝΑ) 404χλμ
Ενημερώθηκε: 29/05/2022 09:20
Αίθριος
Αίθριος
 Άνεμος από ΑΝΑ
Άνεμος: ΑΝΑ 17 km/h
Θερμοκρασία: 27°C
Δείκτης Δυσφορίας: 28°C
Σημ. Δρόσου: 16°C
Υγρασία: 51%
Βαρόμετρο: 1007 hPa
Περίληψη: Αίθριος
Ορατότητα: Μεγαλύτερη από 10 km
2022/05/29 06:20 LGMK 290620Z 12009KT CAVOK 27/16 Q1007
 
LYTV - Αεροδρόμιο στο Τιβάτ
Τιβάτ - Τιβάτ - Μαυροβούνιο
Γ.Πλάτ: 42.3833 - Γ.Μήκ: 18.7167 - Υψόμ: 5μ
Απόσταση από το Vouhead Weather: (ΔΒΔ) 408χλμ
Ενημερώθηκε: 29/05/2022 09:30
Μερικώς νεφελώδης
Μερικώς νεφελώδης
 Άνεμος από Ν
Άνεμος: Ν 17 km/h
Θερμοκρασία: 23°C
Σημ. Δρόσου: 17°C
Υγρασία: 69%
Βαρόμετρο: 1005 hPa
Σύννεφα: Μερικώς νεφελώδης
Ορατότητα: 10 km
Ανάλυση νέφωσης: Διάσπαρτα νέφη 1219 m
Μερικώς νεφελώδης 1829 m
2022/05/29 06:30 LYTV 290630Z 18009KT 150V240 9999 FEW040 SCT060 23/17 Q1005
LIBN - Αεροδρόμιο στη Γκαλατίνα(ΒΠΑ)
Γκαλατίνα - Απουλία(Λέτσε) - Ιταλία
Γ.Πλάτ: 40.2167 - Γ.Μήκ: 18.1333 - Υψόμ: 61μ
Απόσταση από το Vouhead Weather: (Δ) 412χλμ
Ενημερώθηκε: 29/05/2022 08:55
Κυρίως νεφελώδης
Κυρίως νεφελώδης
 Άνεμος από ΝΝΑ
Άνεμος: ΝΝΑ 24 km/h
Θερμοκρασία: 22°C
Σημ. Δρόσου: 20°C
Υγρασία: 88%
Βαρόμετρο: 1003 hPa
Σύννεφα: Κυρίως νεφελώδης
Ορατότητα: 10 km
Ανάλυση νέφωσης: Κυρίως νεφελώδης 549 m
2022/05/29 05:55 LIBN 290555Z 16013KT 9999 BKN018 22/20 Q1003
 
LYKV - Αεροδρόμιο στο Κράλιεβο & Λάντεβτσι
Κράλιεβο(Όμπρβα) - Σουμαντίγια και Δ. Σερβία - Σερβία
Γ.Πλάτ: 43.8167 - Γ.Μήκ: 20.5833 - Υψόμ: 209μ
Απόσταση από το Vouhead Weather: (ΒΒΔ) 412χλμ
Ενημερώθηκε: 29/05/2022 09:30
Κυρίως νεφελώδης
Κυρίως νεφελώδης
 Άνεμος από ΔΒΔ
Άνεμος: ΔΒΔ 9 km/h
Θερμοκρασία: 12°C
Σημ. Δρόσου: 11°C
Υγρασία: 94%
Βαρόμετρο: 1013 hPa
Σύννεφα: Κυρίως νεφελώδης
Ορατότητα: 10 km
Ανάλυση νέφωσης: Μερικώς νεφελώδης 213 m
Κυρίως νεφελώδης 914 m
2022/05/29 06:30 LYKV 290630Z 30005KT 270V340 9999 SCT007 BKN030 12/11 Q1013 TEMPO 4000 TSRA SCT027CB
LTBU - Αεροδρόμιο στο Τσορλού(ΒΠΑ)
Τσορλού - Μαρμαράς(Τεκιρντάγ-Ραιδεστός) - Τουρκία
Γ.Πλάτ: 41.1167 - Γ.Μήκ: 27.9167 - Υψόμ: 173μ
Απόσταση από το Vouhead Weather: (Α) 420χλμ
Ενημερώθηκε: 29/05/2022 09:20
Αίθριος
Αίθριος
 Άνεμος από ΒΑ
Άνεμος: ΒΑ 20 km/h
Θερμοκρασία: 26°C
Σημ. Δρόσου: 15°C
Υγρασία: 51%
Βαρόμετρο: 1011 hPa
Περίληψη: Αίθριος
Ορατότητα: Μεγαλύτερη από 10 km
2022/05/29 06:20 LTBU 290620Z 04011KT CAVOK 26/15 Q1011
 
LRCV - Αεροδρόμιο στη Κραϊόβα
Κραϊόβα - Δολζ - Ρουμανία
Γ.Πλάτ: 44.3167 - Γ.Μήκ: 23.8833 - Υψόμ: 191μ
Απόσταση από το Vouhead Weather: (Β) 424χλμ
Ενημερώθηκε: 29/05/2022 09:00
Νεφοσκεπής
Νεφοσκεπής
 Άνεμος από ΝΑ
Άνεμος: ΝΑ 15 km/h
Θερμοκρασία: 16°C
Σημ. Δρόσου: 15°C
Υγρασία: 94%
Βαρόμετρο: 1010 hPa
Σύννεφα: Νεφοσκεπής
Ορατότητα: 7 km
Ανάλυση νέφωσης: Μερικώς νεφελώδης 91 m
Κυρίως νεφελώδης 183 m
Νεφοσκεπής 305 m
2022/05/29 06:00 LRCV 290600Z 13008KT 7000 SCT003 BKN006 OVC010 16/15 Q1010
LIBR - Αεροδρόμιο στο Μπρίντιζι
(Ανεπίσημο όνομα αεροδρομίου: Ντελ Σαλέντο)
Μπρίντιζι(Πάπολα-Καζάλε) - Απουλία(Μπρίντιζι) - Ιταλία
Γ.Πλάτ: 40.6500 - Γ.Μήκ: 17.9500 - Υψόμ: 10μ
Απόσταση από το Vouhead Weather: (Δ) 424χλμ
Ενημερώθηκε: 29/05/2022 09:20
Κυρίως νεφελώδης
Κυρίως νεφελώδης
 Άνεμος από ΝΑ
Άνεμος: ΝΑ 7 km/h
Θερμοκρασία: 22°C
Σημ. Δρόσου: 17°C
Υγρασία: 73%
Βαρόμετρο: 1003 hPa
Σύννεφα: Κυρίως νεφελώδης
Ορατότητα: 10 km
Ανάλυση νέφωσης: Μερικώς νεφελώδης 610 m
Κυρίως νεφελώδης 914 m
2022/05/29 06:20 LIBR 290620Z 13004KT 090V170 9999 SCT020 BKN030 22/17 Q1003
 
LBBG - Αεροδρόμιο στo Μπουργκάς
Μπουργκάς(Σαράφοβο) - Μπουργκάς - Βουλγαρία
Γ.Πλάτ: 42.5000 - Γ.Μήκ: 27.4833 - Υψόμ: 28μ
Απόσταση από το Vouhead Weather: (ΑΒΑ) 432χλμ
Ενημερώθηκε: 29/05/2022 09:30
Αίθριος
Αίθριος
 Άνεμος από ΒΒΔ
Άνεμος: ΒΒΔ 15 km/h
Θερμοκρασία: 23°C
Σημ. Δρόσου: 17°C
Υγρασία: 69%
Βαρόμετρο: 1012 hPa
Περίληψη: Αίθριος
Ορατότητα: Μεγαλύτερη από 10 km
2022/05/29 06:30 LBBG 290630Z 34008KT CAVOK 23/17 Q1012 NOSIG
LGPA - Αεροδρόμιο "Παντελαίειο"
Πάρος - Νότιο Αιγαίο - Ελλάδα
Γ.Πλάτ: 37.0000 - Γ.Μήκ: 25.0667 - Υψόμ: 36μ
Απόσταση από το Vouhead Weather: (ΝΝΑ) 436χλμ
Ενημερώθηκε: 29/05/2022 08:50
Αίθριος
Αίθριος
 Άνεμος από ΝΑ
Άνεμος: ΝΑ 26 km/h
Θερμοκρασία: 28°C
Σημ. Δρόσου: 9°C
Υγρασία: 30%
Βαρόμετρο: 1006 hPa
Περίληψη: Αίθριος
Ορατότητα: Μεγαλύτερη από 10 km
2022/05/29 05:50 LGPA 290550Z 14014KT CAVOK 28/09 Q1006
 
LGNX - Αεροδρόμιο στη Νάξο
Νάξος - Νότιο Αιγαίο - Ελλάδα
Γ.Πλάτ: 37.0833 - Γ.Μήκ: 25.3667 - Υψόμ: 4μ
Απόσταση από το Vouhead Weather: (ΝΝΑ) 439χλμ
Ενημερώθηκε: 29/05/2022 08:50
Αίθριος
Αίθριος
 Άνεμος από ΝΝΑ
Άνεμος: ΝΝΑ 19 km/h
Θερμοκρασία: 30°C
Σημ. Δρόσου: 9°C
Υγρασία: 27%
Βαρόμετρο: 1007 hPa
Περίληψη: Αίθριος
Ορατότητα: Μεγαλύτερη από 10 km
2022/05/29 05:50 LGNX 290550Z 15010KT CAVOK 30/09 Q1007
LTBJ - Αεροδρόμιο "Αντνάν Μεντερές"
Σμύρνη - Αιγαίο(Σμύρνη) - Τουρκία
Γ.Πλάτ: 38.2667 - Γ.Μήκ: 27.1333 - Υψόμ: 120μ
Απόσταση από το Vouhead Weather: (ΝΑ) 439χλμ
Ενημερώθηκε: 29/05/2022 09:20
Αίθριος
Αίθριος
 Άνεμος από ΝΝΔ
Άνεμος: ΝΝΔ 9 km/h
Θερμοκρασία: 26°C
Σημ. Δρόσου: 14°C
Υγρασία: 48%
Βαρόμετρο: 1009 hPa
Περίληψη: Αίθριος
Ορατότητα: Μεγαλύτερη από 10 km
2022/05/29 06:20 LTBJ 290620Z 21005KT CAVOK 26/14 Q1009 NOSIG
 
LDDU - Αεροδρόμιο στο Ντουμπρόβνικ
Ντουμπρόβνικ - Ντουμπρόβνικ Νερέτβα - Κροατία
Γ.Πλάτ: 42.5667 - Γ.Μήκ: 18.2667 - Υψόμ: 165μ
Απόσταση από το Vouhead Weather: (ΔΒΔ) 450χλμ
Ενημερώθηκε: 29/05/2022 09:30
Διάσπαρτα νέφη
Διάσπαρτα νέφη
 Άνεμος από Α
Άνεμος: Α 7 km/h
Θερμοκρασία: 24°C
Σημ. Δρόσου: 11°C
Υγρασία: 44%
Βαρόμετρο: 1005 hPa
Σύννεφα: Διάσπαρτα νέφη
Ορατότητα: 10 km
Ανάλυση νέφωσης: Διάσπαρτα νέφη 1067 m
2022/05/29 06:30 LDDU 290630Z 09004KT 030V160 9999 FEW035 24/11 Q1005 BECMG 13012KT
LYUZ - Αεροδρόμιο στην Ούζιτσε & Πόνικβε
(Ανεπίσημο όνομα αεροδρομίου: Λέπα Γκλάβα)
Ούζιτσε - Σουμαντίγια και Δ. Σερβία - Σερβία
Γ.Πλάτ: 43.9000 - Γ.Μήκ: 19.7000 - Υψόμ: 904μ
Απόσταση από το Vouhead Weather: (ΒΔ) 458χλμ
Ενημερώθηκε: 04/11/2021 01:30
ΜΗ ΠΡΟΣΦΑΤΟ METAR

 Άνεμος από Μεταβλητός
Άνεμος: Μεταβλητός 9 km/h
Θερμοκρασία: 14°C
Σημ. Δρόσου: 7°C
Υγρασία: 63%
Βαρόμετρο: 1010 hPa
Ορατότητα: 10 km
2021/11/03 23:30 LYUZ 032330Z AUTO VRB05KT 9999 ////// 14/07 Q1010
 
LGSM - Αεροδρόμιο "Αρίσταρχος ο Σάμιος"
Σάμος - Βόρειο Αιγαίο - Ελλάδα
Γ.Πλάτ: 37.6833 - Γ.Μήκ: 26.9167 - Υψόμ: 6μ
Απόσταση από το Vouhead Weather: (ΝΑ) 467χλμ
Ενημερώθηκε: 29/05/2022 08:50
Διάσπαρτα νέφη
Διάσπαρτα νέφη
 Άνεμος από calm
Άνεμος: Απνοια
Θερμοκρασία: 24°C
Σημ. Δρόσου: 19°C
Υγρασία: 74%
Βαρόμετρο: 1008 hPa
Σύννεφα: Διάσπαρτα νέφη
Ορατότητα: 10 km
Ανάλυση νέφωσης: Διάσπαρτα νέφη 762 m
2022/05/29 05:50 LGSM 290550Z 00000KT 9999 FEW025 24/19 Q1008
LIBG - Αεροδρόμιο "Μαρτσέλο Αρλόττα"
Μουντιάζι(Ταράντο-Γκροτάλιε)-Απουλία(Ταράντο)-Ιταλία
Γ.Πλάτ: 40.5167 - Γ.Μήκ: 17.3833 - Υψόμ: 69μ
Απόσταση από το Vouhead Weather: (Δ) 472χλμ
Ενημερώθηκε: 28/05/2022 20:50
ΜΗ ΠΡΟΣΦΑΤΟ METAR
Αίθριος
Αίθριος
 Άνεμος από ΑΝΑ
Άνεμος: ΑΝΑ 7 km/h
Θερμοκρασία: 26°C
Σημ. Δρόσου: 4°C
Υγρασία: 24%
Βαρόμετρο: 1004 hPa
Περίληψη: Αίθριος
Ορατότητα: Μεγαλύτερη από 10 km
2022/05/28 17:50 LIBG 281750Z 12004KT CAVOK 26/04 Q1004
 
LGKC - Αεροδρόμιο στα Κύθηρα
Κύθηρα(Επτάνησα) - Αττική(Νήσοι) - Ελλάδα
Γ.Πλάτ: 36.2833 - Γ.Μήκ: 23.0167 - Υψόμ: 319μ
Απόσταση από το Vouhead Weather: (Ν) 476χλμ
Ενημερώθηκε: 27/05/2022 20:50
ΜΗ ΠΡΟΣΦΑΤΟ METAR
Αίθριος
Αίθριος
 Άνεμος από Δ
Άνεμος: Δ 6 km/h
Θερμοκρασία: 25°C
Σημ. Δρόσου: 17°C
Υγρασία: 61%
Βαρόμετρο: 1016 hPa
Περίληψη: Αίθριος
Ορατότητα: Μεγαλύτερη από 10 km
2022/05/27 17:50 LGKC 271750Z 27003KT CAVOK 25/17 Q1016
LTBA - Αεροδρόμιο "Ατατούρκ"
Κωνσταντινούπολη - Μαρμαράς(Κων/πολη) - Τουρκία
Γ.Πλάτ: 40.9667 - Γ.Μήκ: 28.8167 - Υψόμ: 37μ
Απόσταση από το Vouhead Weather: (Α) 494χλμ
Ενημερώθηκε: 29/05/2022 09:20
Αίθριος
Αίθριος
 Άνεμος από Μεταβλητός
Άνεμος: Μεταβλητός 6 km/h
Θερμοκρασία: 28°C
Δείκτης Δυσφορίας: 28°C
Σημ. Δρόσου: 15°C
Υγρασία: 45%
Βαρόμετρο: 1011 hPa
Περίληψη: Αίθριος
Ορατότητα: Μεγαλύτερη από 10 km
2022/05/29 06:20 LTBA 290620Z VRB03KT CAVOK 28/15 Q1011 NOSIG
   Μην χρησιμοποιήσετε τα στοιχεία για αποφάσεις που αφορούν ζωές και πάσης φύσεως ιδιοκτησίες  
ΠΗΓΑΙΝΕΤΕ ΣΤΗΝ ΙΟΝΙΑ GO TO REA ΠΗΓΑΙΝΕΤΕ ΣΤΗΝ ΚΗΦΙΣΙΑ ΠΗΓΑΙΝΕΤΕ ΣΤΗΝ ΣΥΡΟ ΠΗΓΑΙΝΕΤΕ ΣΤΗΝ ΔΕΞΑΜΕΝΗ (BOLTEK) ΠΗΓΑΙΝΕΤΕ ΣΤΗΝ ΔΕΞΑΜΕΝΗ (LR) ΠΗΓΑΙΝΕΤΕ ΣΤΗΝ ΛΑΡΙΣΑ Γενική Γραμματεία Πολιτικής Προστασίας Ενιαίος Ευρωπαϊκός Αριθμός Έκτακτης Ανάγκης Βίντεο για το Καστελλόριζο(Μεγίστη) από τα αρχεία της ΕΡΤ Ιστοσελίδα Δήμου Μεγίστης Δείτε το μεγαλύτερο